createdAt,value
2019-03-05T00:01:06.872Z,2.28
2019-03-05T00:03:33.046Z,2.29
2019-03-05T00:05:59.184Z,2.30
2019-03-05T00:08:25.387Z,2.27
2019-03-05T00:10:51.644Z,2.31
2019-03-05T00:13:18.181Z,2.30
2019-03-05T00:15:45.665Z,2.30
2019-03-05T00:18:12.551Z,2.32
2019-03-05T00:20:38.713Z,2.29
2019-03-05T00:23:04.799Z,2.31
2019-03-05T00:25:33.164Z,2.32
2019-03-05T00:28:05.722Z,2.31
2019-03-05T00:30:38.473Z,2.34
2019-03-05T00:33:26.347Z,2.32
2019-03-05T00:36:06.351Z,2.29
2019-03-05T00:38:53.776Z,2.27
2019-03-05T00:41:46.498Z,2.25
2019-03-05T00:44:39.090Z,2.24
2019-03-05T00:47:15.119Z,2.23
2019-03-05T00:50:15.576Z,2.23
2019-03-05T00:52:51.567Z,2.27
2019-03-05T00:55:42.602Z,2.26
2019-03-05T00:58:22.258Z,2.23
2019-03-05T01:01:12.213Z,2.20
2019-03-05T01:03:54.556Z,2.23
2019-03-05T01:06:25.101Z,2.26
2019-03-05T01:08:54.617Z,2.27
2019-03-05T01:11:21.220Z,2.25
2019-03-05T01:13:47.554Z,2.25
2019-03-05T01:16:17.969Z,2.29
2019-03-05T01:18:44.191Z,2.34
2019-03-05T01:21:10.508Z,2.37
2019-03-05T01:23:39.596Z,2.42
2019-03-05T01:26:05.745Z,2.46
2019-03-05T01:28:31.916Z,2.50
2019-03-05T01:31:15.259Z,2.56
2019-03-05T01:33:46.336Z,2.65
2019-03-05T01:36:20.175Z,2.77
2019-03-05T01:38:56.056Z,2.84
2019-03-05T01:41:22.283Z,2.87
2019-03-05T01:43:48.512Z,2.96
2019-03-05T01:46:14.697Z,3.05
2019-03-05T01:48:41.880Z,3.09
2019-03-05T01:51:08.359Z,3.17
2019-03-05T01:53:35.554Z,3.21
2019-03-05T01:56:01.743Z,3.26
2019-03-05T01:58:27.837Z,3.33
2019-03-05T02:00:54.225Z,3.36
2019-03-05T02:03:20.500Z,3.37
2019-03-05T02:05:46.968Z,3.35
2019-03-05T02:08:13.095Z,3.32
2019-03-05T02:10:39.612Z,3.36
2019-03-05T02:13:06.744Z,3.35
2019-03-05T02:15:32.838Z,3.27
2019-03-05T02:18:00.648Z,3.27
2019-03-05T02:20:26.757Z,3.22
2019-03-05T02:22:56.489Z,3.20
2019-03-05T02:25:29.351Z,3.19
2019-03-05T02:27:59.302Z,3.23
2019-03-05T02:30:46.775Z,3.20
2019-03-05T02:33:50.464Z,3.22
2019-03-05T02:36:23.115Z,3.19
2019-03-05T02:39:05.322Z,3.18
2019-03-05T02:41:56.540Z,3.22
2019-03-05T02:44:56.975Z,3.22
2019-03-05T02:47:45.290Z,3.13
2019-03-05T02:50:18.035Z,3.07
2019-03-05T02:53:01.020Z,3.02
2019-03-05T02:55:31.020Z,3.06
2019-03-05T02:58:00.668Z,3.02
2019-03-05T03:00:29.002Z,2.99
2019-03-05T03:02:59.636Z,2.98
2019-03-05T03:05:30.751Z,2.91
2019-03-05T03:07:56.772Z,2.92
2019-03-05T03:10:23.095Z,2.93
2019-03-05T03:12:52.188Z,2.98
2019-03-05T03:15:18.484Z,3.02
2019-03-05T03:17:45.130Z,3.11
2019-03-05T03:20:13.137Z,3.21
2019-03-05T03:22:39.431Z,3.20
2019-03-05T03:25:11.210Z,3.16
2019-03-05T03:27:37.510Z,3.09
2019-03-05T03:30:07.541Z,3.05
2019-03-05T03:32:33.787Z,3.01
2019-03-05T03:34:59.985Z,3.07
2019-03-05T03:37:26.089Z,3.11
2019-03-05T03:39:52.367Z,3.10
2019-03-05T03:42:18.447Z,3.13
2019-03-05T03:44:44.751Z,3.09
2019-03-05T03:47:10.850Z,3.06
2019-03-05T03:49:37.012Z,2.95
2019-03-05T03:52:04.873Z,2.92
2019-03-05T03:54:31.111Z,2.97
2019-03-05T03:56:57.170Z,2.97
2019-03-05T03:59:23.468Z,3.01
2019-03-05T04:01:49.726Z,2.96
2019-03-05T04:04:16.057Z,2.91
2019-03-05T04:06:42.315Z,2.86
2019-03-05T04:09:09.507Z,2.85
2019-03-05T04:11:35.721Z,2.84
2019-03-05T04:14:01.806Z,2.78
2019-03-05T04:16:27.993Z,2.78
2019-03-05T04:18:54.081Z,2.75
2019-03-05T04:21:21.923Z,2.78
2019-03-05T04:23:48.019Z,2.76
2019-03-05T04:26:14.257Z,2.71
2019-03-05T04:28:40.340Z,2.66
2019-03-05T04:31:06.582Z,2.71
2019-03-05T04:33:32.722Z,2.75
2019-03-05T04:35:58.911Z,2.82
2019-03-05T04:38:25.047Z,2.90
2019-03-05T04:40:51.422Z,2.99
2019-03-05T04:43:17.534Z,3.06
2019-03-05T04:46:02.504Z,3.05
2019-03-05T04:48:28.854Z,3.09
2019-03-05T04:50:58.316Z,3.10
2019-03-05T04:53:24.403Z,3.12
2019-03-05T04:55:51.860Z,3.10
2019-03-05T04:58:18.895Z,3.13
2019-03-05T05:00:45.229Z,3.10
2019-03-05T05:03:11.309Z,3.07
2019-03-05T05:05:37.610Z,3.04
2019-03-05T05:08:03.689Z,3.06
2019-03-05T05:10:29.897Z,3.08
2019-03-05T05:12:56.806Z,3.05
2019-03-05T05:15:31.226Z,3.04
2019-03-05T05:17:57.511Z,2.98
2019-03-05T05:20:24.117Z,2.96
2019-03-05T05:22:51.603Z,2.96
2019-03-05T05:25:20.630Z,2.91
2019-03-05T05:27:46.758Z,2.91
2019-03-05T05:30:33.542Z,2.92
2019-03-05T05:32:59.894Z,2.93
2019-03-05T05:35:26.488Z,2.86
2019-03-05T05:37:52.682Z,2.83
2019-03-05T05:40:33.676Z,2.85
2019-03-05T05:43:00.062Z,2.90
2019-03-05T05:45:36.493Z,2.92
2019-03-05T05:48:02.813Z,2.90
2019-03-05T05:50:28.997Z,2.90
2019-03-05T05:52:55.185Z,2.98
2019-03-05T05:55:21.419Z,2.99
2019-03-05T05:57:49.856Z,2.94
2019-03-05T06:00:16.600Z,2.93
2019-03-05T06:02:43.945Z,2.90
2019-03-05T06:05:10.687Z,2.92
2019-03-05T06:07:36.870Z,3.00
2019-03-05T06:10:06.604Z,3.10
2019-03-05T06:12:32.960Z,3.11
2019-03-05T06:14:59.058Z,3.12
2019-03-05T06:17:25.271Z,3.11
2019-03-05T06:19:52.897Z,3.22
2019-03-05T06:22:19.104Z,3.23
2019-03-05T06:24:45.194Z,3.24
2019-03-05T06:27:11.441Z,3.27
2019-03-05T06:29:38.676Z,3.31
2019-03-05T06:32:04.952Z,3.32
2019-03-05T06:34:31.104Z,3.35
2019-03-05T06:36:57.331Z,3.39
2019-03-05T06:39:24.686Z,3.43
2019-03-05T06:41:50.987Z,3.45
2019-03-05T06:44:17.346Z,3.45
2019-03-05T06:46:43.574Z,3.47
2019-03-05T06:49:09.775Z,3.48
2019-03-05T06:51:36.153Z,3.49
2019-03-05T06:54:03.835Z,3.52
2019-03-05T06:56:29.946Z,3.52
2019-03-05T06:58:56.319Z,3.54
2019-03-05T07:01:24.479Z,3.54
2019-03-05T07:03:51.367Z,3.56
2019-03-05T07:06:46.519Z,3.53
2019-03-05T07:09:16.811Z,3.50
2019-03-05T07:11:49.746Z,3.42
2019-03-05T07:14:31.003Z,3.35
2019-03-05T07:17:15.791Z,3.21
2019-03-05T07:19:57.985Z,2.94
2019-03-05T07:22:29.817Z,2.66
2019-03-05T07:24:56.023Z,2.45
2019-03-05T07:27:25.456Z,2.41
2019-03-05T07:29:53.472Z,2.47
2019-03-05T07:32:19.559Z,2.51
2019-03-05T07:34:49.488Z,2.58
2019-03-05T07:37:15.826Z,2.63
2019-03-05T07:39:42.144Z,2.67
2019-03-05T07:42:08.295Z,2.71
2019-03-05T07:44:34.503Z,2.74
2019-03-05T07:47:01.037Z,2.77
2019-03-05T07:49:27.233Z,2.75
2019-03-05T07:51:53.464Z,2.79
2019-03-05T07:54:20.067Z,2.84
2019-03-05T07:56:46.283Z,2.91
2019-03-05T07:59:12.477Z,2.97
2019-03-05T08:01:38.720Z,3.00
2019-03-05T08:04:05.049Z,3.07
2019-03-05T08:06:31.325Z,3.19
2019-03-05T08:09:27.210Z,3.25
2019-03-05T08:12:00.304Z,3.30
2019-03-05T08:14:39.537Z,3.40
2019-03-05T08:17:05.869Z,3.48
2019-03-05T08:19:32.084Z,3.56
2019-03-05T08:22:01.235Z,3.61
2019-03-05T08:24:27.548Z,3.67
2019-03-05T08:26:53.647Z,3.71
2019-03-05T08:29:19.869Z,3.70
2019-03-05T08:31:46.027Z,3.72
2019-03-05T08:34:12.223Z,3.86
2019-03-05T08:36:38.341Z,3.95
2019-03-05T08:39:06.117Z,4.01
2019-03-05T08:41:32.702Z,4.08
2019-03-05T08:43:59.012Z,4.07
2019-03-05T08:46:25.213Z,4.05
2019-03-05T08:48:51.448Z,4.15
2019-03-05T08:51:18.751Z,4.30
2019-03-05T08:53:49.492Z,4.36
2019-03-05T08:56:13.126Z,4.42
2019-03-05T08:58:39.440Z,4.45
2019-03-05T09:01:06.300Z,4.55
2019-03-05T09:03:32.507Z,4.63
2019-03-05T09:05:58.681Z,4.60
2019-03-05T09:08:26.925Z,4.59
2019-03-05T09:10:53.606Z,4.62
2019-03-05T09:13:20.002Z,4.81
2019-03-05T09:15:46.223Z,5.06
2019-03-05T09:18:14.442Z,5.17
2019-03-05T09:20:41.038Z,5.10
2019-03-05T09:23:07.207Z,5.04
2019-03-05T09:25:33.564Z,5.00
2019-03-05T09:27:59.711Z,5.02
2019-03-05T09:30:26.124Z,5.08
2019-03-05T09:32:52.236Z,5.11
2019-03-05T09:35:18.996Z,5.12
2019-03-05T09:37:45.348Z,5.09
2019-03-05T09:40:20.184Z,5.09
2019-03-05T09:42:46.719Z,5.09
2019-03-05T09:45:15.240Z,5.30
2019-03-05T09:47:41.550Z,5.43
2019-03-05T09:50:10.787Z,5.50
2019-03-05T09:52:37.071Z,5.50
2019-03-05T09:55:06.604Z,5.57
2019-03-05T09:57:33.822Z,5.79
2019-03-05T10:00:00.031Z,5.90
2019-03-05T10:02:26.306Z,5.81
2019-03-05T10:04:52.658Z,5.81
2019-03-05T10:07:19.473Z,5.78
2019-03-05T10:09:45.637Z,5.91
2019-03-05T10:12:13.081Z,6.06
2019-03-05T10:14:39.331Z,5.98
2019-03-05T10:17:05.660Z,6.02
2019-03-05T10:19:31.829Z,6.00
2019-03-05T10:21:57.960Z,5.94
2019-03-05T10:24:24.185Z,6.13
2019-03-05T10:26:52.453Z,6.25
2019-03-05T10:29:18.893Z,6.29
2019-03-05T10:31:45.250Z,6.27
2019-03-05T10:34:11.487Z,6.42
2019-03-05T10:36:37.812Z,6.91
2019-03-05T10:39:08.118Z,6.94
2019-03-05T10:41:34.471Z,6.88
2019-03-05T10:44:01.999Z,6.76
2019-03-05T10:46:28.313Z,6.68
2019-03-05T10:48:55.942Z,6.53
2019-03-05T10:51:22.102Z,6.36
2019-03-05T10:53:49.910Z,6.36
2019-03-05T10:56:16.404Z,6.32
2019-03-05T10:58:42.853Z,6.35
2019-03-05T11:01:09.478Z,6.44
2019-03-05T11:03:36.312Z,6.48
2019-03-05T11:06:04.761Z,6.40
2019-03-05T11:08:31.097Z,6.34
2019-03-05T11:10:59.411Z,6.31
2019-03-05T11:13:25.747Z,6.17
2019-03-05T11:15:56.365Z,6.10
2019-03-05T11:18:29.297Z,6.04
2019-03-05T11:20:51.118Z,5.98
2019-03-05T11:23:17.243Z,5.93
2019-03-05T11:25:44.623Z,5.86
2019-03-05T11:28:10.968Z,5.83
2019-03-05T11:30:37.575Z,5.85
2019-03-05T11:33:03.779Z,5.86
2019-03-05T11:35:32.403Z,5.67
2019-03-05T11:37:58.800Z,5.19
2019-03-05T11:40:25.338Z,5.15
2019-03-05T11:42:51.654Z,5.28
2019-03-05T11:45:24.881Z,5.35
2019-03-05T11:47:53.994Z,5.32
2019-03-05T11:50:21.057Z,5.16
2019-03-05T11:52:47.599Z,5.07
2019-03-05T11:55:20.922Z,4.95
2019-03-05T11:57:47.124Z,4.90
2019-03-05T12:00:20.862Z,4.84
2019-03-05T12:02:47.488Z,4.84
2019-03-05T12:05:13.855Z,4.86
2019-03-05T12:07:40.089Z,4.65
2019-03-05T12:10:12.965Z,4.50
2019-03-05T12:12:40.333Z,4.40
2019-03-05T12:15:10.307Z,4.43
2019-03-05T12:17:37.850Z,4.40
2019-03-05T12:20:09.438Z,4.44
2019-03-05T12:22:35.701Z,4.45
2019-03-05T12:25:03.612Z,4.44
2019-03-05T12:27:30.184Z,4.33
2019-03-05T12:29:56.406Z,4.22
2019-03-05T12:32:22.517Z,4.16
2019-03-05T12:34:48.751Z,4.13
2019-03-05T12:37:14.936Z,4.10
2019-03-05T12:39:44.028Z,4.03
2019-03-05T12:42:10.130Z,4.00
2019-03-05T12:44:37.310Z,4.02
2019-03-05T12:47:03.608Z,4.02
2019-03-05T12:49:30.158Z,4.06
2019-03-05T12:51:56.254Z,4.11
2019-03-05T12:54:22.569Z,4.11
2019-03-05T12:56:48.820Z,4.10
2019-03-05T12:59:15.033Z,4.11
2019-03-05T13:01:41.393Z,4.16
2019-03-05T13:04:08.649Z,4.19
2019-03-05T13:06:35.160Z,4.23
2019-03-05T13:09:01.399Z,4.22
2019-03-05T13:11:29.473Z,4.27
2019-03-05T13:14:05.967Z,4.27
2019-03-05T13:16:23.881Z,4.30
2019-03-05T13:18:50.207Z,4.31
2019-03-05T13:21:18.333Z,4.31
2019-03-05T13:23:44.393Z,4.30
2019-03-05T13:26:11.220Z,4.32
2019-03-05T13:28:40.518Z,4.23
2019-03-05T13:31:06.344Z,4.16
2019-03-05T13:33:33.508Z,4.10
2019-03-05T13:36:00.788Z,4.05
2019-03-05T13:38:26.893Z,4.07
2019-03-05T13:40:53.028Z,4.10
2019-03-05T13:43:21.703Z,4.24
2019-03-05T13:45:49.589Z,4.35
2019-03-05T13:48:31.895Z,4.44
2019-03-05T13:51:23.096Z,4.48
2019-03-05T13:54:21.147Z,4.41
2019-03-05T13:57:08.277Z,4.49
2019-03-05T13:59:41.285Z,4.52
2019-03-05T14:02:07.955Z,4.55
2019-03-05T14:04:37.943Z,4.72
2019-03-05T14:07:17.067Z,4.88
2019-03-05T14:09:43.063Z,4.91
2019-03-05T14:12:09.503Z,4.88
2019-03-05T14:14:35.904Z,4.83
2019-03-05T14:17:09.912Z,4.80
2019-03-05T14:19:36.377Z,4.75
2019-03-05T14:22:02.654Z,4.68
2019-03-05T14:24:28.988Z,4.58
2019-03-05T14:26:56.248Z,4.53
2019-03-05T14:29:22.505Z,4.56
2019-03-05T14:31:48.658Z,4.54
2019-03-05T14:34:14.983Z,4.61
2019-03-05T14:36:41.230Z,4.70
2019-03-05T14:39:24.363Z,4.74
2019-03-05T14:41:56.524Z,4.68
2019-03-05T14:44:23.045Z,4.71
2019-03-05T14:46:56.095Z,4.67
2019-03-05T14:49:22.504Z,4.65
2019-03-05T14:51:48.885Z,4.56
2019-03-05T14:54:15.047Z,4.51
2019-03-05T14:56:41.161Z,4.51
2019-03-05T14:59:09.163Z,4.55
2019-03-05T15:01:35.371Z,4.50
2019-03-05T15:04:01.661Z,4.49
2019-03-05T15:06:27.730Z,4.48
2019-03-05T15:08:53.979Z,4.41
2019-03-05T15:11:20.192Z,4.43
2019-03-05T15:13:46.442Z,4.45
2019-03-05T15:16:12.907Z,4.41
2019-03-05T15:18:39.091Z,4.43
2019-03-05T15:21:05.371Z,4.34
2019-03-05T15:23:31.638Z,4.31
2019-03-05T15:25:57.838Z,4.32
2019-03-05T15:28:24.109Z,4.30
2019-03-05T15:30:50.247Z,4.25
2019-03-05T15:33:16.391Z,4.26
2019-03-05T15:35:42.587Z,4.28
2019-03-05T15:38:08.883Z,4.33
2019-03-05T15:40:35.177Z,4.34
2019-03-05T15:43:01.452Z,4.42
2019-03-05T15:45:27.685Z,4.41
2019-03-05T15:47:53.828Z,4.47
2019-03-05T15:50:29.176Z,4.43
2019-03-05T15:52:55.423Z,4.35
2019-03-05T15:55:23.467Z,4.37
2019-03-05T15:57:49.628Z,4.27
2019-03-05T16:00:18.428Z,4.22
2019-03-05T16:02:44.634Z,4.12
2019-03-05T16:05:12.435Z,4.13
2019-03-05T16:07:38.798Z,4.09
2019-03-05T16:10:13.263Z,3.96
2019-03-05T16:12:42.605Z,3.85
2019-03-05T16:15:12.885Z,3.76
2019-03-05T16:17:39.700Z,3.69
2019-03-05T16:20:14.039Z,3.65
2019-03-05T16:22:41.298Z,3.65
2019-03-05T16:25:13.761Z,3.65
2019-03-05T16:27:41.596Z,3.66
2019-03-05T16:30:13.662Z,3.63
2019-03-05T16:32:47.749Z,3.63
2019-03-05T16:35:28.978Z,3.60
2019-03-05T16:38:09.115Z,3.50
2019-03-05T16:40:37.366Z,3.35
2019-03-05T16:43:13.871Z,3.24
2019-03-05T16:45:42.060Z,3.19
2019-03-05T16:48:13.211Z,3.19
2019-03-05T16:51:00.882Z,3.18
2019-03-05T16:53:31.354Z,3.19
2019-03-05T16:56:00.584Z,3.16
2019-03-05T17:02:11.978Z,2.99
2019-03-05T17:04:43.007Z,2.87
2019-03-05T17:07:28.454Z,2.77
2019-03-05T17:10:00.491Z,2.70
2019-03-05T17:12:29.254Z,2.62
2019-03-05T17:14:55.716Z,2.58
2019-03-05T17:17:22.036Z,2.52
2019-03-05T17:19:48.793Z,2.49
2019-03-05T17:22:15.128Z,2.47
2019-03-05T17:24:41.365Z,2.43
2019-03-05T17:27:09.338Z,2.44
2019-03-05T17:29:36.295Z,2.42
2019-03-05T17:32:03.661Z,2.41
2019-03-05T17:34:30.377Z,2.36
2019-03-05T17:36:56.874Z,2.37
2019-03-05T17:39:24.814Z,2.37
2019-03-05T17:41:51.214Z,2.36
2019-03-05T17:44:17.611Z,2.35
2019-03-05T17:46:45.266Z,2.38
2019-03-05T17:49:13.592Z,2.36
2019-03-05T17:51:43.141Z,2.36
2019-03-05T17:54:10.342Z,2.35
2019-03-05T17:56:36.855Z,2.35
2019-03-05T17:59:03.421Z,2.36
2019-03-05T18:01:29.764Z,2.34
2019-03-05T18:03:56.162Z,2.32
2019-03-05T18:06:23.022Z,2.33
2019-03-05T18:08:49.439Z,2.31
2019-03-05T18:11:15.704Z,2.29
2019-03-05T18:13:42.385Z,2.27
2019-03-05T18:16:08.662Z,2.29
2019-03-05T18:18:34.953Z,2.29
2019-03-05T18:21:03.351Z,2.25
2019-03-05T18:23:30.712Z,2.24
2019-03-05T18:25:57.423Z,2.21
2019-03-05T18:28:24.235Z,2.25
2019-03-05T18:30:50.619Z,2.28
2019-03-05T18:33:17.846Z,2.28
2019-03-05T18:35:44.095Z,2.29
2019-03-05T18:38:10.549Z,2.30
2019-03-05T18:40:37.156Z,2.29
2019-03-05T18:43:03.873Z,2.25
2019-03-05T18:45:31.413Z,2.24
2019-03-05T18:47:57.662Z,2.22
2019-03-05T18:50:23.868Z,2.22
2019-03-05T18:52:58.957Z,2.24
2019-03-05T18:55:25.775Z,2.21
2019-03-05T18:57:53.187Z,2.18
2019-03-05T19:00:25.902Z,2.18
2019-03-05T19:02:54.482Z,2.16
2019-03-05T19:05:22.127Z,2.12
2019-03-05T19:07:49.737Z,2.12
2019-03-05T19:10:18.281Z,2.11
2019-03-05T19:12:44.720Z,2.10
2019-03-05T19:15:13.763Z,2.11
2019-03-05T19:17:42.763Z,2.19
2019-03-05T19:20:11.933Z,2.25
2019-03-05T19:22:38.080Z,2.31
2019-03-05T19:25:08.026Z,2.35
2019-03-05T19:27:44.495Z,2.34
2019-03-05T19:30:19.558Z,2.36
2019-03-05T19:32:45.985Z,2.40
2019-03-05T19:35:13.351Z,2.41
2019-03-05T19:37:40.222Z,2.40
2019-03-05T19:40:13.966Z,2.43
2019-03-05T19:42:40.221Z,2.46
2019-03-05T19:45:09.445Z,2.45
2019-03-05T19:47:35.636Z,2.51
2019-03-05T19:50:02.896Z,2.51
2019-03-05T19:52:30.232Z,2.54
2019-03-05T19:54:56.403Z,2.52
2019-03-05T19:57:24.106Z,2.49
2019-03-05T19:59:50.328Z,2.48
2019-03-05T20:02:17.894Z,2.47
2019-03-05T20:04:44.087Z,2.40
2019-03-05T20:07:12.054Z,2.34
2019-03-05T20:09:38.434Z,2.34
2019-03-05T20:12:04.968Z,2.40
2019-03-05T20:14:31.869Z,2.44
2019-03-05T20:16:58.950Z,2.48
2019-03-05T20:19:25.137Z,2.49
2019-03-05T20:21:51.390Z,2.53
2019-03-05T20:24:17.510Z,2.55
2019-03-05T20:26:43.967Z,2.58
2019-03-05T20:29:10.534Z,2.61
2019-03-05T20:31:37.158Z,2.64
2019-03-05T20:34:03.547Z,2.68
2019-03-05T20:36:29.813Z,2.67
2019-03-05T20:38:58.750Z,2.70
2019-03-05T20:41:25.170Z,2.72
2019-03-05T20:43:51.614Z,2.74
2019-03-05T20:46:20.285Z,2.76
2019-03-05T20:48:46.582Z,2.81
2019-03-05T20:51:13.481Z,2.83
2019-03-05T20:53:39.771Z,2.84
2019-03-05T20:56:06.462Z,2.85
2019-03-05T20:58:32.609Z,2.84
2019-03-05T21:00:59.098Z,2.85
2019-03-05T21:03:25.456Z,2.84
2019-03-05T21:05:51.686Z,2.86
2019-03-05T21:08:18.129Z,2.86
2019-03-05T21:10:44.726Z,2.90
2019-03-05T21:13:10.972Z,2.89
2019-03-05T21:15:37.403Z,2.88
2019-03-05T21:18:06.128Z,2.90
2019-03-05T21:20:32.317Z,2.91
2019-03-05T21:22:59.505Z,2.93
2019-03-05T21:25:26.278Z,2.94
2019-03-05T21:27:52.483Z,2.98
2019-03-05T21:30:23.283Z,2.96
2019-03-05T21:32:49.696Z,2.93
2019-03-05T21:35:16.071Z,2.94
2019-03-05T21:37:42.759Z,2.92
2019-03-05T21:40:24.836Z,2.92
2019-03-05T21:42:51.321Z,2.91
2019-03-05T21:45:23.707Z,2.93
2019-03-05T21:47:52.125Z,2.94
2019-03-05T21:50:18.794Z,2.94
2019-03-05T21:52:44.980Z,2.96
2019-03-05T21:55:15.151Z,2.98
2019-03-05T21:57:42.786Z,2.99
2019-03-05T22:00:20.953Z,3.00
2019-03-05T22:02:47.380Z,2.99
2019-03-05T22:05:14.025Z,2.99
2019-03-05T22:07:40.313Z,3.00
2019-03-05T22:10:10.994Z,3.00
2019-03-05T22:12:37.497Z,3.00
2019-03-05T22:15:07.724Z,2.99
2019-03-05T22:17:34.304Z,2.97
2019-03-05T22:20:00.510Z,2.96
2019-03-05T22:22:26.718Z,2.93
2019-03-05T22:24:52.888Z,2.93
2019-03-05T22:27:19.020Z,2.93
2019-03-05T22:29:45.404Z,2.93
2019-03-05T22:32:11.485Z,2.98
2019-03-05T22:34:37.674Z,2.97
2019-03-05T22:37:03.842Z,2.96
2019-03-05T22:39:30.098Z,2.97
2019-03-05T22:41:56.241Z,2.98
2019-03-05T22:44:23.985Z,2.97
2019-03-05T22:46:50.117Z,2.97
2019-03-05T22:49:16.352Z,2.95
2019-03-05T22:51:42.825Z,2.93
2019-03-05T22:54:09.155Z,2.91
2019-03-05T22:56:35.293Z,2.87
2019-03-05T22:59:01.802Z,2.82
2019-03-05T23:01:33.271Z,2.75
2019-03-05T23:04:00.453Z,2.70
2019-03-05T23:06:28.353Z,2.68
2019-03-05T23:08:55.066Z,2.70
2019-03-05T23:11:21.462Z,2.68
2019-03-05T23:13:48.101Z,2.65
2019-03-05T23:16:14.516Z,2.58
2019-03-05T23:18:41.155Z,2.55
2019-03-05T23:21:08.481Z,2.54
2019-03-05T23:23:34.833Z,2.53
2019-03-05T23:26:02.613Z,2.49
2019-03-05T23:28:28.915Z,2.44
2019-03-05T23:30:55.212Z,2.39
2019-03-05T23:33:21.450Z,2.37
2019-03-05T23:35:47.736Z,2.34
2019-03-05T23:38:13.834Z,2.31
2019-03-05T23:40:39.998Z,2.28
2019-03-05T23:43:06.056Z,2.23
2019-03-05T23:45:33.157Z,2.20
2019-03-05T23:47:59.285Z,2.17
2019-03-05T23:50:25.533Z,2.10
2019-03-05T23:52:51.766Z,2.09
2019-03-05T23:55:18.177Z,2.10
2019-03-05T23:57:47.030Z,2.09
